sensor_id;sensor_type;location;lat;lon;timestamp;P1;durP1;ratioP1;P2;durP2;ratioP2
11675;SDS011;5894;42.768;23.404;2024-01-27T00:01:07;11.20;;;5.77;;
11675;SDS011;5894;42.768;23.404;2024-01-27T00:03:33;10.13;;;6.00;;
11675;SDS011;5894;42.768;23.404;2024-01-27T00:06:00;9.97;;;5.10;;
11675;SDS011;5894;42.768;23.404;2024-01-27T00:08:31;10.70;;;5.97;;
11675;SDS011;5894;42.768;23.404;2024-01-27T00:10:58;11.80;;;5.87;;
11675;SDS011;5894;42.768;23.404;2024-01-27T00:13:25;11.10;;;5.50;;
11675;SDS011;5894;42.768;23.404;2024-01-27T00:15:52;11.67;;;5.57;;
11675;SDS011;5894;42.768;23.404;2024-01-27T00:18:20;9.50;;;4.83;;
11675;SDS011;5894;42.768;23.404;2024-01-27T00:20:47;10.33;;;5.20;;
11675;SDS011;5894;42.768;23.404;2024-01-27T00:23:14;14.10;;;5.87;;
11675;SDS011;5894;42.768;23.404;2024-01-27T00:25:42;10.57;;;6.33;;
11675;SDS011;5894;42.768;23.404;2024-01-27T00:28:09;11.60;;;5.80;;
11675;SDS011;5894;42.768;23.404;2024-01-27T00:30:36;13.57;;;6.87;;
11675;SDS011;5894;42.768;23.404;2024-01-27T00:33:03;15.17;;;7.47;;
11675;SDS011;5894;42.768;23.404;2024-01-27T00:35:30;21.17;;;10.17;;
11675;SDS011;5894;42.768;23.404;2024-01-27T00:37:57;29.97;;;12.70;;
11675;SDS011;5894;42.768;23.404;2024-01-27T00:40:24;23.53;;;10.93;;
11675;SDS011;5894;42.768;23.404;2024-01-27T00:42:52;19.13;;;10.77;;
11675;SDS011;5894;42.768;23.404;2024-01-27T00:45:20;22.53;;;10.33;;
11675;SDS011;5894;42.768;23.404;2024-01-27T00:47:47;21.13;;;9.03;;
11675;SDS011;5894;42.768;23.404;2024-01-27T00:50:15;16.77;;;9.20;;
11675;SDS011;5894;42.768;23.404;2024-01-27T00:52:42;15.43;;;8.60;;
11675;SDS011;5894;42.768;23.404;2024-01-27T00:55:09;15.77;;;7.83;;
11675;SDS011;5894;42.768;23.404;2024-01-27T00:57:37;17.33;;;9.73;;
11675;SDS011;5894;42.768;23.404;2024-01-27T01:00:07;22.33;;;10.43;;
11675;SDS011;5894;42.768;23.404;2024-01-27T01:02:36;35.53;;;15.97;;
11675;SDS011;5894;42.768;23.404;2024-01-27T01:05:06;36.77;;;16.80;;
11675;SDS011;5894;42.768;23.404;2024-01-27T01:07:33;45.90;;;18.23;;
11675;SDS011;5894;42.768;23.404;2024-01-27T01:10:00;32.93;;;14.73;;
11675;SDS011;5894;42.768;23.404;2024-01-27T01:12:28;28.93;;;13.50;;
11675;SDS011;5894;42.768;23.404;2024-01-27T01:14:55;22.37;;;11.17;;
11675;SDS011;5894;42.768;23.404;2024-01-27T01:17:23;21.57;;;9.23;;
11675;SDS011;5894;42.768;23.404;2024-01-27T01:19:50;12.93;;;6.70;;
11675;SDS011;5894;42.768;23.404;2024-01-27T01:22:17;13.40;;;6.83;;
11675;SDS011;5894;42.768;23.404;2024-01-27T01:24:44;10.00;;;5.73;;
11675;SDS011;5894;42.768;23.404;2024-01-27T01:27:11;8.93;;;5.03;;
11675;SDS011;5894;42.768;23.404;2024-01-27T01:29:38;9.57;;;4.73;;
11675;SDS011;5894;42.768;23.404;2024-01-27T01:32:05;8.13;;;4.70;;
11675;SDS011;5894;42.768;23.404;2024-01-27T01:34:34;11.70;;;4.93;;
11675;SDS011;5894;42.768;23.404;2024-01-27T01:37:01;7.23;;;4.20;;
11675;SDS011;5894;42.768;23.404;2024-01-27T01:39:28;9.47;;;4.47;;
11675;SDS011;5894;42.768;23.404;2024-01-27T01:41:55;8.53;;;4.30;;
11675;SDS011;5894;42.768;23.404;2024-01-27T01:44:22;6.57;;;4.27;;
11675;SDS011;5894;42.768;23.404;2024-01-27T01:46:50;10.53;;;4.30;;
11675;SDS011;5894;42.768;23.404;2024-01-27T01:49:18;8.70;;;4.10;;
11675;SDS011;5894;42.768;23.404;2024-01-27T01:51:46;7.97;;;4.20;;
11675;SDS011;5894;42.768;23.404;2024-01-27T01:54:13;13.77;;;5.07;;
11675;SDS011;5894;42.768;23.404;2024-01-27T01:56:40;9.10;;;4.17;;
11675;SDS011;5894;42.768;23.404;2024-01-27T01:59:08;7.30;;;4.10;;
11675;SDS011;5894;42.768;23.404;2024-01-27T02:01:35;7.60;;;4.13;;
11675;SDS011;5894;42.768;23.404;2024-01-27T02:04:04;10.13;;;4.43;;
11675;SDS011;5894;42.768;23.404;2024-01-27T02:06:31;7.60;;;3.70;;
11675;SDS011;5894;42.768;23.404;2024-01-27T02:08:59;8.57;;;3.57;;
11675;SDS011;5894;42.768;23.404;2024-01-27T02:11:26;5.90;;;3.30;;
11675;SDS011;5894;42.768;23.404;2024-01-27T02:13:53;6.20;;;3.47;;
11675;SDS011;5894;42.768;23.404;2024-01-27T02:16:20;6.03;;;3.40;;
11675;SDS011;5894;42.768;23.404;2024-01-27T02:18:48;9.77;;;3.60;;
11675;SDS011;5894;42.768;23.404;2024-01-27T02:21:15;8.40;;;3.70;;
11675;SDS011;5894;42.768;23.404;2024-01-27T02:23:41;10.10;;;3.50;;
11675;SDS011;5894;42.768;23.404;2024-01-27T02:26:10;9.60;;;3.80;;
11675;SDS011;5894;42.768;23.404;2024-01-27T02:28:37;6.40;;;3.80;;
11675;SDS011;5894;42.768;23.404;2024-01-27T02:31:04;5.67;;;3.80;;
11675;SDS011;5894;42.768;23.404;2024-01-27T02:33:31;9.17;;;4.80;;
11675;SDS011;5894;42.768;23.404;2024-01-27T02:35:57;9.23;;;4.50;;
11675;SDS011;5894;42.768;23.404;2024-01-27T02:38:24;10.00;;;4.10;;
11675;SDS011;5894;42.768;23.404;2024-01-27T02:40:51;7.47;;;3.97;;
11675;SDS011;5894;42.768;23.404;2024-01-27T02:43:19;7.47;;;3.73;;
11675;SDS011;5894;42.768;23.404;2024-01-27T02:45:46;7.43;;;3.40;;
11675;SDS011;5894;42.768;23.404;2024-01-27T02:48:13;10.13;;;3.80;;
11675;SDS011;5894;42.768;23.404;2024-01-27T02:50:40;10.27;;;3.30;;
11675;SDS011;5894;42.768;23.404;2024-01-27T02:53:07;8.17;;;3.60;;
11675;SDS011;5894;42.768;23.404;2024-01-27T02:55:35;5.73;;;3.27;;
11675;SDS011;5894;42.768;23.404;2024-01-27T02:58:02;5.47;;;3.17;;
11675;SDS011;5894;42.768;23.404;2024-01-27T03:00:31;6.17;;;3.17;;
11675;SDS011;5894;42.768;23.404;2024-01-27T03:02:58;6.00;;;3.30;;
11675;SDS011;5894;42.768;23.404;2024-01-27T03:05:25;5.40;;;3.20;;
11675;SDS011;5894;42.768;23.404;2024-01-27T03:07:52;6.00;;;3.40;;
11675;SDS011;5894;42.768;23.404;2024-01-27T03:10:19;6.50;;;3.20;;
11675;SDS011;5894;42.768;23.404;2024-01-27T03:12:46;8.07;;;3.30;;
11675;SDS011;5894;42.768;23.404;2024-01-27T03:15:13;7.43;;;3.37;;
11675;SDS011;5894;42.768;23.404;2024-01-27T03:17:41;8.77;;;3.43;;
11675;SDS011;5894;42.768;23.404;2024-01-27T03:20:09;10.67;;;4.57;;
11675;SDS011;5894;42.768;23.404;2024-01-27T03:22:36;8.37;;;3.43;;
11675;SDS011;5894;42.768;23.404;2024-01-27T03:25:05;9.00;;;4.13;;
11675;SDS011;5894;42.768;23.404;2024-01-27T03:27:33;10.60;;;4.60;;
11675;SDS011;5894;42.768;23.404;2024-01-27T03:30:00;9.07;;;4.13;;
11675;SDS011;5894;42.768;23.404;2024-01-27T03:32:28;8.73;;;3.37;;
11675;SDS011;5894;42.768;23.404;2024-01-27T03:34:59;9.60;;;4.00;;
11675;SDS011;5894;42.768;23.404;2024-01-27T03:37:26;7.80;;;3.83;;
11675;SDS011;5894;42.768;23.404;2024-01-27T03:39:53;7.00;;;3.67;;
11675;SDS011;5894;42.768;23.404;2024-01-27T03:42:20;6.83;;;3.37;;
11675;SDS011;5894;42.768;23.404;2024-01-27T03:44:49;6.80;;;3.30;;
11675;SDS011;5894;42.768;23.404;2024-01-27T03:47:17;7.40;;;2.93;;
11675;SDS011;5894;42.768;23.404;2024-01-27T03:49:44;7.00;;;3.47;;
11675;SDS011;5894;42.768;23.404;2024-01-27T03:52:12;9.03;;;3.10;;
11675;SDS011;5894;42.768;23.404;2024-01-27T03:54:39;8.83;;;3.03;;
11675;SDS011;5894;42.768;23.404;2024-01-27T03:57:06;4.93;;;2.70;;
11675;SDS011;5894;42.768;23.404;2024-01-27T03:59:33;7.47;;;3.17;;
11675;SDS011;5894;42.768;23.404;2024-01-27T04:02:00;11.80;;;5.07;;
11675;SDS011;5894;42.768;23.404;2024-01-27T04:04:27;7.60;;;3.80;;
11675;SDS011;5894;42.768;23.404;2024-01-27T04:06:54;6.63;;;3.40;;
11675;SDS011;5894;42.768;23.404;2024-01-27T04:09:22;5.53;;;3.13;;
11675;SDS011;5894;42.768;23.404;2024-01-27T04:11:49;6.40;;;3.00;;
11675;SDS011;5894;42.768;23.404;2024-01-27T04:14:16;5.63;;;2.77;;
11675;SDS011;5894;42.768;23.404;2024-01-27T04:16:43;5.83;;;2.93;;
11675;SDS011;5894;42.768;23.404;2024-01-27T04:19:10;8.60;;;3.50;;
11675;SDS011;5894;42.768;23.404;2024-01-27T04:21:37;8.20;;;3.60;;
11675;SDS011;5894;42.768;23.404;2024-01-27T04:24:04;7.27;;;3.50;;
11675;SDS011;5894;42.768;23.404;2024-01-27T04:26:33;6.80;;;3.60;;
11675;SDS011;5894;42.768;23.404;2024-01-27T04:28:59;9.33;;;3.93;;
11675;SDS011;5894;42.768;23.404;2024-01-27T04:31:26;7.97;;;3.70;;
11675;SDS011;5894;42.768;23.404;2024-01-27T04:33:53;8.00;;;3.90;;
11675;SDS011;5894;42.768;23.404;2024-01-27T04:36:26;8.80;;;3.73;;
11675;SDS011;5894;42.768;23.404;2024-01-27T04:38:54;7.93;;;3.63;;
11675;SDS011;5894;42.768;23.404;2024-01-27T04:41:21;7.47;;;4.07;;
11675;SDS011;5894;42.768;23.404;2024-01-27T04:43:49;6.77;;;4.30;;
11675;SDS011;5894;42.768;23.404;2024-01-27T04:46:18;7.07;;;3.67;;
11675;SDS011;5894;42.768;23.404;2024-01-27T04:48:45;6.23;;;3.30;;
11675;SDS011;5894;42.768;23.404;2024-01-27T04:51:12;6.57;;;3.27;;
11675;SDS011;5894;42.768;23.404;2024-01-27T04:53:39;6.80;;;3.47;;
11675;SDS011;5894;42.768;23.404;2024-01-27T04:56:06;8.83;;;3.73;;
11675;SDS011;5894;42.768;23.404;2024-01-27T04:58:35;10.67;;;4.00;;
11675;SDS011;5894;42.768;23.404;2024-01-27T05:01:03;7.57;;;3.77;;
11675;SDS011;5894;42.768;23.404;2024-01-27T05:03:31;8.93;;;4.17;;
11675;SDS011;5894;42.768;23.404;2024-01-27T05:06:00;6.13;;;3.47;;
11675;SDS011;5894;42.768;23.404;2024-01-27T05:08:27;6.97;;;3.20;;
11675;SDS011;5894;42.768;23.404;2024-01-27T05:10:53;4.50;;;3.10;;
11675;SDS011;5894;42.768;23.404;2024-01-27T05:13:20;7.77;;;3.00;;
11675;SDS011;5894;42.768;23.404;2024-01-27T05:15:48;6.17;;;3.60;;
11675;SDS011;5894;42.768;23.404;2024-01-27T05:18:17;7.10;;;3.10;;
11675;SDS011;5894;42.768;23.404;2024-01-27T05:20:44;10.93;;;4.43;;
11675;SDS011;5894;42.768;23.404;2024-01-27T05:23:11;6.87;;;3.00;;
11675;SDS011;5894;42.768;23.404;2024-01-27T05:25:38;9.50;;;3.13;;
11675;SDS011;5894;42.768;23.404;2024-01-27T05:28:05;6.93;;;3.27;;
11675;SDS011;5894;42.768;23.404;2024-01-27T05:30:32;4.77;;;2.77;;
11675;SDS011;5894;42.768;23.404;2024-01-27T05:32:59;7.00;;;3.20;;
11675;SDS011;5894;42.768;23.404;2024-01-27T05:35:28;5.70;;;3.13;;
11675;SDS011;5894;42.768;23.404;2024-01-27T05:37:55;6.77;;;3.37;;
11675;SDS011;5894;42.768;23.404;2024-01-27T05:40:22;7.20;;;3.03;;
11675;SDS011;5894;42.768;23.404;2024-01-27T05:42:49;8.73;;;3.40;;
11675;SDS011;5894;42.768;23.404;2024-01-27T05:45:16;8.57;;;3.60;;
11675;SDS011;5894;42.768;23.404;2024-01-27T05:47:43;6.27;;;3.77;;
11675;SDS011;5894;42.768;23.404;2024-01-27T05:50:10;6.40;;;3.97;;
11675;SDS011;5894;42.768;23.404;2024-01-27T05:52:38;6.53;;;3.50;;
11675;SDS011;5894;42.768;23.404;2024-01-27T05:55:05;7.10;;;3.70;;
11675;SDS011;5894;42.768;23.404;2024-01-27T05:57:33;6.70;;;3.63;;
11675;SDS011;5894;42.768;23.404;2024-01-27T06:00:00;6.27;;;3.77;;
11675;SDS011;5894;42.768;23.404;2024-01-27T06:02:32;7.57;;;3.40;;
11675;SDS011;5894;42.768;23.404;2024-01-27T06:04:59;6.53;;;3.83;;
11675;SDS011;5894;42.768;23.404;2024-01-27T06:07:26;6.00;;;3.90;;
11675;SDS011;5894;42.768;23.404;2024-01-27T06:09:54;6.70;;;3.50;;
11675;SDS011;5894;42.768;23.404;2024-01-27T06:12:21;8.20;;;3.63;;
11675;SDS011;5894;42.768;23.404;2024-01-27T06:14:48;6.40;;;3.37;;
11675;SDS011;5894;42.768;23.404;2024-01-27T06:17:15;6.73;;;3.80;;
11675;SDS011;5894;42.768;23.404;2024-01-27T06:19:42;5.87;;;3.53;;
11675;SDS011;5894;42.768;23.404;2024-01-27T06:22:09;8.13;;;3.83;;
11675;SDS011;5894;42.768;23.404;2024-01-27T06:24:41;9.57;;;4.73;;
11675;SDS011;5894;42.768;23.404;2024-01-27T06:27:10;8.27;;;5.27;;
11675;SDS011;5894;42.768;23.404;2024-01-27T06:29:37;8.40;;;4.90;;
11675;SDS011;5894;42.768;23.404;2024-01-27T06:32:05;7.67;;;3.87;;
11675;SDS011;5894;42.768;23.404;2024-01-27T06:34:32;8.77;;;4.57;;
11675;SDS011;5894;42.768;23.404;2024-01-27T06:36:59;6.80;;;4.27;;
11675;SDS011;5894;42.768;23.404;2024-01-27T06:39:26;7.67;;;3.70;;
11675;SDS011;5894;42.768;23.404;2024-01-27T06:41:54;7.70;;;4.60;;
11675;SDS011;5894;42.768;23.404;2024-01-27T06:44:23;5.53;;;3.83;;
11675;SDS011;5894;42.768;23.404;2024-01-27T06:46:50;5.90;;;4.07;;
11675;SDS011;5894;42.768;23.404;2024-01-27T06:49:17;9.53;;;5.40;;
11675;SDS011;5894;42.768;23.404;2024-01-27T06:51:43;9.03;;;5.03;;
11675;SDS011;5894;42.768;23.404;2024-01-27T06:54:10;9.30;;;5.40;;
11675;SDS011;5894;42.768;23.404;2024-01-27T06:56:37;6.47;;;4.30;;
11675;SDS011;5894;42.768;23.404;2024-01-27T06:59:04;6.73;;;3.53;;
11675;SDS011;5894;42.768;23.404;2024-01-27T07:01:33;6.17;;;2.90;;
11675;SDS011;5894;42.768;23.404;2024-01-27T07:03:59;6.37;;;2.90;;
11675;SDS011;5894;42.768;23.404;2024-01-27T07:06:26;5.03;;;3.00;;
11675;SDS011;5894;42.768;23.404;2024-01-27T07:08:53;4.27;;;2.67;;
11675;SDS011;5894;42.768;23.404;2024-01-27T07:11:20;4.70;;;3.07;;
11675;SDS011;5894;42.768;23.404;2024-01-27T07:13:47;3.60;;;2.70;;
11675;SDS011;5894;42.768;23.404;2024-01-27T07:16:14;4.40;;;2.90;;
11675;SDS011;5894;42.768;23.404;2024-01-27T07:18:43;4.30;;;3.10;;
11675;SDS011;5894;42.768;23.404;2024-01-27T07:21:14;3.53;;;2.50;;
11675;SDS011;5894;42.768;23.404;2024-01-27T07:23:41;2.40;;;2.00;;
11675;SDS011;5894;42.768;23.404;2024-01-27T07:26:08;4.50;;;2.30;;
11675;SDS011;5894;42.768;23.404;2024-01-27T07:28:35;4.30;;;3.30;;
11675;SDS011;5894;42.768;23.404;2024-01-27T07:31:03;3.93;;;2.33;;
11675;SDS011;5894;42.768;23.404;2024-01-27T07:33:30;2.03;;;1.80;;
11675;SDS011;5894;42.768;23.404;2024-01-27T07:35:58;2.03;;;1.67;;
11675;SDS011;5894;42.768;23.404;2024-01-27T07:38:25;3.20;;;2.10;;
11675;SDS011;5894;42.768;23.404;2024-01-27T07:40:52;5.40;;;2.20;;
11675;SDS011;5894;42.768;23.404;2024-01-27T07:43:19;3.23;;;1.87;;
11675;SDS011;5894;42.768;23.404;2024-01-27T07:45:46;3.20;;;2.30;;
11675;SDS011;5894;42.768;23.404;2024-01-27T07:48:13;2.87;;;2.20;;
11675;SDS011;5894;42.768;23.404;2024-01-27T07:50:40;3.37;;;2.23;;
11675;SDS011;5894;42.768;23.404;2024-01-27T07:53:12;2.80;;;2.37;;
11675;SDS011;5894;42.768;23.404;2024-01-27T07:55:39;4.80;;;2.50;;
11675;SDS011;5894;42.768;23.404;2024-01-27T07:58:06;3.83;;;2.70;;
11675;SDS011;5894;42.768;23.404;2024-01-27T08:00:33;3.67;;;2.67;;
11675;SDS011;5894;42.768;23.404;2024-01-27T08:03:00;4.57;;;2.87;;
11675;SDS011;5894;42.768;23.404;2024-01-27T08:05:27;4.13;;;2.90;;
11675;SDS011;5894;42.768;23.404;2024-01-27T08:07:54;5.67;;;3.63;;
11675;SDS011;5894;42.768;23.404;2024-01-27T08:10:22;5.00;;;3.67;;
11675;SDS011;5894;42.768;23.404;2024-01-27T08:12:49;5.50;;;3.47;;
11675;SDS011;5894;42.768;23.404;2024-01-27T08:15:16;6.97;;;3.70;;
11675;SDS011;5894;42.768;23.404;2024-01-27T08:17:43;7.93;;;4.23;;
11675;SDS011;5894;42.768;23.404;2024-01-27T08:20:10;5.27;;;3.93;;
11675;SDS011;5894;42.768;23.404;2024-01-27T08:22:37;6.23;;;4.10;;
11675;SDS011;5894;42.768;23.404;2024-01-27T08:25:05;6.47;;;4.00;;
11675;SDS011;5894;42.768;23.404;2024-01-27T08:27:34;6.33;;;4.30;;
11675;SDS011;5894;42.768;23.404;2024-01-27T08:30:01;7.40;;;4.53;;
11675;SDS011;5894;42.768;23.404;2024-01-27T08:32:28;6.37;;;4.10;;
11675;SDS011;5894;42.768;23.404;2024-01-27T08:34:55;6.40;;;4.00;;
11675;SDS011;5894;42.768;23.404;2024-01-27T08:37:23;7.27;;;4.10;;
11675;SDS011;5894;42.768;23.404;2024-01-27T08:39:50;6.73;;;4.13;;
11675;SDS011;5894;42.768;23.404;2024-01-27T08:42:17;5.37;;;3.80;;
11675;SDS011;5894;42.768;23.404;2024-01-27T08:44:46;6.20;;;4.37;;
11675;SDS011;5894;42.768;23.404;2024-01-27T08:47:13;6.40;;;3.90;;
11675;SDS011;5894;42.768;23.404;2024-01-27T08:49:40;4.90;;;4.00;;
11675;SDS011;5894;42.768;23.404;2024-01-27T08:52:07;4.00;;;3.20;;
11675;SDS011;5894;42.768;23.404;2024-01-27T08:54:34;4.90;;;3.70;;
11675;SDS011;5894;42.768;23.404;2024-01-27T08:57:02;5.17;;;3.57;;
11675;SDS011;5894;42.768;23.404;2024-01-27T08:59:29;5.13;;;3.80;;
11675;SDS011;5894;42.768;23.404;2024-01-27T09:01:57;4.17;;;3.10;;
11675;SDS011;5894;42.768;23.404;2024-01-27T09:04:24;4.97;;;3.27;;
11675;SDS011;5894;42.768;23.404;2024-01-27T09:06:51;3.90;;;2.87;;
11675;SDS011;5894;42.768;23.404;2024-01-27T09:09:18;6.30;;;3.03;;
11675;SDS011;5894;42.768;23.404;2024-01-27T09:11:45;4.13;;;2.90;;
11675;SDS011;5894;42.768;23.404;2024-01-27T09:14:13;3.77;;;2.83;;
11675;SDS011;5894;42.768;23.404;2024-01-27T09:16:40;4.07;;;2.90;;
11675;SDS011;5894;42.768;23.404;2024-01-27T09:19:08;4.57;;;2.90;;
11675;SDS011;5894;42.768;23.404;2024-01-27T09:21:35;2.73;;;2.50;;
11675;SDS011;5894;42.768;23.404;2024-01-27T09:24:02;3.87;;;2.30;;
11675;SDS011;5894;42.768;23.404;2024-01-27T09:26:30;3.47;;;2.67;;
11675;SDS011;5894;42.768;23.404;2024-01-27T09:28:56;3.27;;;2.33;;
11675;SDS011;5894;42.768;23.404;2024-01-27T09:31:23;3.10;;;2.27;;
11675;SDS011;5894;42.768;23.404;2024-01-27T09:33:51;2.90;;;2.30;;
11675;SDS011;5894;42.768;23.404;2024-01-27T09:36:20;3.27;;;2.43;;
11675;SDS011;5894;42.768;23.404;2024-01-27T09:38:48;4.50;;;2.80;;
11675;SDS011;5894;42.768;23.404;2024-01-27T09:41:15;3.50;;;2.73;;
11675;SDS011;5894;42.768;23.404;2024-01-27T09:43:42;4.03;;;2.70;;
11675;SDS011;5894;42.768;23.404;2024-01-27T09:46:13;4.23;;;2.60;;
11675;SDS011;5894;42.768;23.404;2024-01-27T09:48:40;3.97;;;2.50;;
11675;SDS011;5894;42.768;23.404;2024-01-27T09:51:07;3.63;;;2.50;;
11675;SDS011;5894;42.768;23.404;2024-01-27T09:53:37;3.13;;;2.63;;
11675;SDS011;5894;42.768;23.404;2024-01-27T09:56:04;3.03;;;2.40;;
11675;SDS011;5894;42.768;23.404;2024-01-27T09:58:33;3.57;;;2.87;;
11675;SDS011;5894;42.768;23.404;2024-01-27T10:01:00;3.70;;;2.40;;
11675;SDS011;5894;42.768;23.404;2024-01-27T10:03:28;3.13;;;2.43;;
11675;SDS011;5894;42.768;23.404;2024-01-27T10:05:56;2.83;;;2.27;;
11675;SDS011;5894;42.768;23.404;2024-01-27T10:08:23;2.50;;;2.30;;
11675;SDS011;5894;42.768;23.404;2024-01-27T10:10:53;2.20;;;2.00;;
11675;SDS011;5894;42.768;23.404;2024-01-27T10:13:22;3.33;;;2.00;;
11675;SDS011;5894;42.768;23.404;2024-01-27T10:16:00;2.03;;;1.80;;
11675;SDS011;5894;42.768;23.404;2024-01-27T10:18:28;2.80;;;1.93;;
11675;SDS011;5894;42.768;23.404;2024-01-27T10:20:55;2.00;;;1.90;;
11675;SDS011;5894;42.768;23.404;2024-01-27T10:23:22;2.73;;;2.03;;
11675;SDS011;5894;42.768;23.404;2024-01-27T10:25:50;2.40;;;2.20;;
11675;SDS011;5894;42.768;23.404;2024-01-27T10:28:18;2.23;;;2.00;;
11675;SDS011;5894;42.768;23.404;2024-01-27T10:30:45;2.20;;;2.00;;
11675;SDS011;5894;42.768;23.404;2024-01-27T10:33:13;2.20;;;1.93;;
11675;SDS011;5894;42.768;23.404;2024-01-27T10:35:41;3.83;;;2.27;;
11675;SDS011;5894;42.768;23.404;2024-01-27T10:38:08;2.60;;;1.97;;
11675;SDS011;5894;42.768;23.404;2024-01-27T10:40:36;2.30;;;1.90;;
11675;SDS011;5894;42.768;23.404;2024-01-27T10:43:04;2.40;;;2.07;;
11675;SDS011;5894;42.768;23.404;2024-01-27T10:45:35;2.10;;;1.90;;
11675;SDS011;5894;42.768;23.404;2024-01-27T10:48:03;3.33;;;1.90;;
11675;SDS011;5894;42.768;23.404;2024-01-27T10:50:32;4.13;;;1.93;;
11675;SDS011;5894;42.768;23.404;2024-01-27T10:53:03;2.10;;;1.90;;
11675;SDS011;5894;42.768;23.404;2024-01-27T10:55:31;2.60;;;1.90;;
11675;SDS011;5894;42.768;23.404;2024-01-27T10:58:00;1.70;;;1.60;;
11675;SDS011;5894;42.768;23.404;2024-01-27T11:00:29;2.13;;;1.80;;
11675;SDS011;5894;42.768;23.404;2024-01-27T11:02:59;2.73;;;2.10;;
11675;SDS011;5894;42.768;23.404;2024-01-27T11:05:30;1.80;;;1.70;;
11675;SDS011;5894;42.768;23.404;2024-01-27T11:08:01;2.10;;;1.90;;
11675;SDS011;5894;42.768;23.404;2024-01-27T11:10:31;2.67;;;1.90;;
11675;SDS011;5894;42.768;23.404;2024-01-27T11:13:01;3.10;;;1.90;;
11675;SDS011;5894;42.768;23.404;2024-01-27T11:15:29;3.97;;;2.10;;
11675;SDS011;5894;42.768;23.404;2024-01-27T11:17:59;1.83;;;1.73;;
11675;SDS011;5894;42.768;23.404;2024-01-27T11:20:27;2.23;;;2.03;;
11675;SDS011;5894;42.768;23.404;2024-01-27T11:23:07;3.93;;;2.20;;
11675;SDS011;5894;42.768;23.404;2024-01-27T11:25:35;4.03;;;2.60;;
11675;SDS011;5894;42.768;23.404;2024-01-27T11:28:10;2.57;;;2.17;;
11675;SDS011;5894;42.768;23.404;2024-01-27T11:30:38;2.33;;;2.07;;
11675;SDS011;5894;42.768;23.404;2024-01-27T11:33:06;2.70;;;2.47;;
11675;SDS011;5894;42.768;23.404;2024-01-27T11:35:34;2.97;;;2.50;;
11675;SDS011;5894;42.768;23.404;2024-01-27T11:38:01;2.50;;;2.27;;
11675;SDS011;5894;42.768;23.404;2024-01-27T11:40:28;4.30;;;2.47;;
11675;SDS011;5894;42.768;23.404;2024-01-27T11:42:56;7.93;;;2.80;;
11675;SDS011;5894;42.768;23.404;2024-01-27T11:45:23;4.17;;;2.83;;
11675;SDS011;5894;42.768;23.404;2024-01-27T11:47:53;4.37;;;2.83;;
11675;SDS011;5894;42.768;23.404;2024-01-27T11:50:22;3.50;;;2.80;;
11675;SDS011;5894;42.768;23.404;2024-01-27T11:52:49;4.60;;;3.10;;
11675;SDS011;5894;42.768;23.404;2024-01-27T11:55:16;5.80;;;2.80;;
11675;SDS011;5894;42.768;23.404;2024-01-27T11:57:44;4.63;;;2.77;;
11675;SDS011;5894;42.768;23.404;2024-01-27T12:00:12;4.73;;;3.00;;
11675;SDS011;5894;42.768;23.404;2024-01-27T12:02:39;3.77;;;2.70;;
11675;SDS011;5894;42.768;23.404;2024-01-27T12:05:07;3.83;;;2.97;;
11675;SDS011;5894;42.768;23.404;2024-01-27T12:07:36;3.70;;;2.77;;
11675;SDS011;5894;42.768;23.404;2024-01-27T12:10:03;3.40;;;2.67;;
11675;SDS011;5894;42.768;23.404;2024-01-27T12:12:31;4.90;;;2.60;;
11675;SDS011;5894;42.768;23.404;2024-01-27T12:14:59;3.67;;;2.93;;
11675;SDS011;5894;42.768;23.404;2024-01-27T12:17:27;3.47;;;2.80;;
11675;SDS011;5894;42.768;23.404;2024-01-27T12:19:55;2.80;;;2.60;;
11675;SDS011;5894;42.768;23.404;2024-01-27T12:22:22;3.20;;;2.57;;
11675;SDS011;5894;42.768;23.404;2024-01-27T12:24:52;2.40;;;2.20;;
11675;SDS011;5894;42.768;23.404;2024-01-27T12:27:20;3.60;;;2.60;;
11675;SDS011;5894;42.768;23.404;2024-01-27T12:29:48;8.93;;;3.07;;
11675;SDS011;5894;42.768;23.404;2024-01-27T12:32:15;3.33;;;2.77;;
11675;SDS011;5894;42.768;23.404;2024-01-27T12:34:42;4.37;;;2.67;;
11675;SDS011;5894;42.768;23.404;2024-01-27T12:37:11;3.33;;;2.50;;
11675;SDS011;5894;42.768;23.404;2024-01-27T12:39:40;3.77;;;2.90;;
11675;SDS011;5894;42.768;23.404;2024-01-27T12:42:10;3.70;;;2.87;;
11675;SDS011;5894;42.768;23.404;2024-01-27T12:44:37;3.23;;;2.70;;
11675;SDS011;5894;42.768;23.404;2024-01-27T12:47:04;4.10;;;2.67;;
11675;SDS011;5894;42.768;23.404;2024-01-27T12:49:32;3.90;;;2.60;;
11675;SDS011;5894;42.768;23.404;2024-01-27T12:51:59;3.47;;;2.63;;
11675;SDS011;5894;42.768;23.404;2024-01-27T12:54:27;4.13;;;2.63;;
11675;SDS011;5894;42.768;23.404;2024-01-27T12:56:53;4.43;;;2.80;;
11675;SDS011;5894;42.768;23.404;2024-01-27T12:59:22;3.43;;;2.43;;
11675;SDS011;5894;42.768;23.404;2024-01-27T13:01:49;3.40;;;2.47;;
11675;SDS011;5894;42.768;23.404;2024-01-27T13:04:17;4.30;;;2.67;;
11675;SDS011;5894;42.768;23.404;2024-01-27T13:06:44;2.73;;;2.10;;
11675;SDS011;5894;42.768;23.404;2024-01-27T13:09:11;3.13;;;2.03;;
11675;SDS011;5894;42.768;23.404;2024-01-27T13:11:39;2.30;;;2.10;;
11675;SDS011;5894;42.768;23.404;2024-01-27T13:14:06;2.33;;;1.80;;
11675;SDS011;5894;42.768;23.404;2024-01-27T13:16:37;2.63;;;1.93;;
11675;SDS011;5894;42.768;23.404;2024-01-27T13:19:04;2.30;;;1.60;;
11675;SDS011;5894;42.768;23.404;2024-01-27T13:21:32;2.90;;;1.60;;
11675;SDS011;5894;42.768;23.404;2024-01-27T13:23:58;2.17;;;1.67;;
11675;SDS011;5894;42.768;23.404;2024-01-27T13:26:27;1.60;;;1.30;;
11675;SDS011;5894;42.768;23.404;2024-01-27T13:28:56;1.60;;;1.40;;
11675;SDS011;5894;42.768;23.404;2024-01-27T13:31:22;2.57;;;1.40;;
11675;SDS011;5894;42.768;23.404;2024-01-27T13:33:51;2.50;;;1.70;;
11675;SDS011;5894;42.768;23.404;2024-01-27T13:36:18;2.60;;;1.90;;
11675;SDS011;5894;42.768;23.404;2024-01-27T13:38:44;2.00;;;1.77;;
11675;SDS011;5894;42.768;23.404;2024-01-27T13:41:11;4.33;;;1.70;;
11675;SDS011;5894;42.768;23.404;2024-01-27T13:43:38;2.20;;;1.50;;
11675;SDS011;5894;42.768;23.404;2024-01-27T13:46:05;2.83;;;2.03;;
11675;SDS011;5894;42.768;23.404;2024-01-27T13:48:32;2.40;;;1.50;;
11675;SDS011;5894;42.768;23.404;2024-01-27T13:51:01;1.80;;;1.50;;
11675;SDS011;5894;42.768;23.404;2024-01-27T13:53:28;4.77;;;1.73;;
11675;SDS011;5894;42.768;23.404;2024-01-27T13:55:55;5.47;;;1.87;;
11675;SDS011;5894;42.768;23.404;2024-01-27T13:58:22;2.27;;;1.60;;
11675;SDS011;5894;42.768;23.404;2024-01-27T14:00:49;1.90;;;1.70;;
11675;SDS011;5894;42.768;23.404;2024-01-27T14:03:16;3.87;;;1.70;;
11675;SDS011;5894;42.768;23.404;2024-01-27T14:05:43;3.30;;;1.60;;
11675;SDS011;5894;42.768;23.404;2024-01-27T14:08:13;5.00;;;2.20;;
11675;SDS011;5894;42.768;23.404;2024-01-27T14:10:42;2.70;;;1.60;;
11675;SDS011;5894;42.768;23.404;2024-01-27T14:13:09;2.07;;;1.80;;
11675;SDS011;5894;42.768;23.404;2024-01-27T14:15:35;5.20;;;1.60;;
11675;SDS011;5894;42.768;23.404;2024-01-27T14:18:02;2.83;;;1.40;;
11675;SDS011;5894;42.768;23.404;2024-01-27T14:20:31;2.60;;;1.70;;
11675;SDS011;5894;42.768;23.404;2024-01-27T14:22:59;2.43;;;1.40;;
11675;SDS011;5894;42.768;23.404;2024-01-27T14:25:27;2.27;;;1.47;;
11675;SDS011;5894;42.768;23.404;2024-01-27T14:27:54;2.43;;;1.40;;
11675;SDS011;5894;42.768;23.404;2024-01-27T14:30:21;2.43;;;1.73;;
11675;SDS011;5894;42.768;23.404;2024-01-27T14:32:49;2.20;;;1.40;;
11675;SDS011;5894;42.768;23.404;2024-01-27T14:35:17;2.57;;;1.53;;
11675;SDS011;5894;42.768;23.404;2024-01-27T14:37:44;3.97;;;1.67;;
11675;SDS011;5894;42.768;23.404;2024-01-27T14:40:11;1.87;;;1.57;;
11675;SDS011;5894;42.768;23.404;2024-01-27T14:42:40;1.60;;;1.40;;
11675;SDS011;5894;42.768;23.404;2024-01-27T14:45:10;2.20;;;1.50;;
11675;SDS011;5894;42.768;23.404;2024-01-27T14:47:37;1.90;;;1.50;;